Elation — 3FOC5 — position and weather

sailwx.info

Track history (hours):
 
Tides and Currents Weather Stations Pressure Air Temp Water Temp Dewpoint Dewpoint Depression Visibility Wind Speed Wind Dir Waves Ship Positions

Elation

Operator: Carnival Cruise Lines

Last reported at 2017-Oct-15 08:40 UTC. Time now 2017-Oct-20 03:37 UTC.
Position N 26°21' W 079°00'.

Type: Passenger vessel. MMSI: 355831000.

Date/timePositionNaut miles runAvg speedWind from/ knotsBaromVisibWave heightAir tempDewpointWater temp
2017-Oct-15 08:40N 26°21' W 079°00'712.1
2017-Oct-15 08:03N 26°18' W 078°53'112.4
2017-Oct-15 08:00N 26°17' W 078°52'612.4
2017-Oct-15 07:29N 26°14' W 078°46'  
2017-Oct-12 23:27N 30°16' W 081°10'815.8
2017-Oct-12 22:58N 30°21' W 081°17'5 9.8
2017-Oct-12 22:30N 30°24' W 081°21'5 9.9
2017-Oct-12 21:59N 30°23' W 081°27'7 1.0
2017-Oct-12 15:09N 30°24' W 081°35'0 0.0
2017-Oct-12 13:15N 30°24' W 081°35'0 0.0
2017-Oct-12 12:57N 30°24' W 081°35'0 0.0
2017-Oct-12 10:03N 30°24' W 081°35'0 0.0
2017-Oct-12 07:45N 30°24' W 081°35'18 7.6
2017-Oct-12 05:25N 30°21' W 081°15'1310.1
2017-Oct-12 04:06N 30°13' W 081°03'1416.1
2017-Oct-12 03:15N 30°05' W 080°50'  
2017-Oct-08 23:01N 26°36' W 079°18'017.7
2017-Oct-08 23:00N 26°36' W 079°18'916.7
2017-Oct-08 22:27N 26°45' W 079°22'  
Track history (hours):
 
Tides and Currents Weather Stations Pressure Air Temp Water Temp Dewpoint Dewpoint Depression Visibility Wind Speed Wind Dir Waves Ship Positions

Elation

Operator: Carnival Cruise Lines

Last reported at 2017-Oct-15 08:40 UTC. Time now 2017-Oct-20 03:37 UTC.
Position N 26°21' W 079°00'.

Type: Passenger vessel. MMSI: 355831000.

Date/timePositionNaut miles runAvg speedWind from/ knotsBaromVisibWave heightAir tempDewpointWater temp
2017-Oct-15 08:40N 26°21' W 079°00'712.1
2017-Oct-15 08:03N 26°18' W 078°53'112.4
2017-Oct-15 08:00N 26°17' W 078°52'612.4
2017-Oct-15 07:29N 26°14' W 078°46'  
2017-Oct-12 23:27N 30°16' W 081°10'815.8
2017-Oct-12 22:58N 30°21' W 081°17'5 9.8
2017-Oct-12 22:30N 30°24' W 081°21'5 9.9
2017-Oct-12 21:59N 30°23' W 081°27'7 1.0
2017-Oct-12 15:09N 30°24' W 081°35'0 0.0
2017-Oct-12 13:15N 30°24' W 081°35'0 0.0
2017-Oct-12 12:57N 30°24' W 081°35'0 0.0
2017-Oct-12 10:03N 30°24' W 081°35'0 0.0
2017-Oct-12 07:45N 30°24' W 081°35'18 7.6
2017-Oct-12 05:25N 30°21' W 081°15'1310.1
2017-Oct-12 04:06N 30°13' W 081°03'1416.1
2017-Oct-12 03:15N 30°05' W 080°50'  
2017-Oct-08 23:01N 26°36' W 079°18'017.7
2017-Oct-08 23:00N 26°36' W 079°18'916.7
2017-Oct-08 22:27N 26°45' W 079°22'  

Dump ship's entire track history